createdAt,value
2018-03-06T00:00:35.335Z,18.63
2018-03-06T00:02:37.820Z,17.30
2018-03-06T00:04:40.344Z,18.70
2018-03-06T00:06:42.806Z,18.27
2018-03-06T00:08:45.300Z,18.60
2018-03-06T00:10:47.800Z,18.50
2018-03-06T00:12:50.310Z,21.57
2018-03-06T00:14:52.888Z,19.73
2018-03-06T00:16:56.879Z,17.60
2018-03-06T00:18:59.335Z,16.50
2018-03-06T00:21:01.853Z,17.60
2018-03-06T00:23:04.308Z,19.40
2018-03-06T00:25:06.873Z,17.37
2018-03-06T00:27:09.374Z,25.33
2018-03-06T00:29:11.969Z,19.67
2018-03-06T00:31:14.567Z,22.23
2018-03-06T00:33:17.025Z,18.23
2018-03-06T00:35:19.521Z,17.63
2018-03-06T00:37:21.996Z,22.53
2018-03-06T00:39:24.546Z,19.83
2018-03-06T00:41:27.014Z,19.00
2018-03-06T00:43:29.525Z,20.87
2018-03-06T00:45:32.025Z,23.20
2018-03-06T00:47:34.496Z,17.47
2018-03-06T00:49:37.084Z,19.60
2018-03-06T00:51:39.699Z,21.57
2018-03-06T00:53:42.140Z,22.13
2018-03-06T00:55:44.709Z,21.80
2018-03-06T00:57:47.384Z,24.13
2018-03-06T00:59:49.849Z,21.20
2018-03-06T01:01:52.406Z,23.10
2018-03-06T01:03:54.967Z,22.60
2018-03-06T01:05:57.437Z,18.97
2018-03-06T01:07:59.926Z,19.50
2018-03-06T01:10:02.387Z,20.23
2018-03-06T01:12:04.939Z,21.93
2018-03-06T01:14:07.493Z,22.30
2018-03-06T01:16:09.956Z,20.60
2018-03-06T01:18:12.430Z,21.33
2018-03-06T01:20:14.917Z,21.97
2018-03-06T01:22:17.431Z,19.10
2018-03-06T01:24:19.994Z,19.57
2018-03-06T01:26:22.482Z,21.97
2018-03-06T01:28:25.089Z,19.77
2018-03-06T01:30:27.641Z,24.57
2018-03-06T01:32:30.089Z,21.67
2018-03-06T01:34:32.668Z,22.57
2018-03-06T01:36:35.154Z,18.97
2018-03-06T01:38:37.989Z,19.57
2018-03-06T01:40:40.487Z,21.67
2018-03-06T01:42:42.962Z,22.23
2018-03-06T01:44:45.445Z,21.47
2018-03-06T01:46:48.039Z,23.17
2018-03-06T01:48:50.531Z,20.70
2018-03-06T01:50:53.006Z,21.27
2018-03-06T01:52:55.621Z,24.50
2018-03-06T01:54:58.125Z,22.00
2018-03-06T01:57:00.616Z,24.17
2018-03-06T01:59:03.204Z,22.20
2018-03-06T02:01:05.665Z,22.23
2018-03-06T02:03:08.162Z,24.07
2018-03-06T02:05:10.620Z,25.67
2018-03-06T02:07:13.110Z,24.10
2018-03-06T02:09:15.565Z,21.07
2018-03-06T02:11:18.124Z,24.80
2018-03-06T02:13:20.605Z,24.07
2018-03-06T02:15:23.090Z,20.40
2018-03-06T02:17:25.656Z,20.80
2018-03-06T02:19:28.228Z,20.63
2018-03-06T02:21:30.656Z,24.33
2018-03-06T02:23:33.126Z,21.07
2018-03-06T02:25:35.664Z,22.43
2018-03-06T02:27:38.210Z,21.60
2018-03-06T02:29:40.678Z,26.57
2018-03-06T02:31:43.140Z,25.40
2018-03-06T02:33:45.601Z,24.70
2018-03-06T02:35:48.182Z,25.33
2018-03-06T02:37:50.650Z,23.27
2018-03-06T02:39:53.186Z,27.50
2018-03-06T02:41:55.759Z,28.23
2018-03-06T02:43:58.353Z,23.93
2018-03-06T02:46:10.428Z,29.53
2018-03-06T02:48:12.957Z,24.57
2018-03-06T02:50:15.530Z,25.67
2018-03-06T02:52:17.986Z,30.20
2018-03-06T02:54:20.547Z,25.90
2018-03-06T02:56:23.142Z,26.73
2018-03-06T02:58:25.610Z,25.27
2018-03-06T03:00:28.052Z,23.03
2018-03-06T03:02:30.545Z,25.37
2018-03-06T03:04:33.115Z,30.47
2018-03-06T03:06:35.720Z,27.50
2018-03-06T03:08:38.197Z,24.20
2018-03-06T03:10:40.671Z,28.47
2018-03-06T03:12:43.182Z,33.83
2018-03-06T03:14:45.667Z,27.63
2018-03-06T03:16:48.276Z,30.50
2018-03-06T03:18:50.766Z,31.10
2018-03-06T03:20:53.287Z,30.87
2018-03-06T03:22:55.787Z,35.63
2018-03-06T03:24:58.243Z,36.27
2018-03-06T03:27:00.752Z,37.53
2018-03-06T03:29:03.198Z,35.27
2018-03-06T03:31:05.760Z,37.87
2018-03-06T03:33:08.236Z,33.53
2018-03-06T03:35:10.746Z,35.83
2018-03-06T03:37:13.234Z,39.17
2018-03-06T03:39:15.708Z,37.33
2018-03-06T03:41:18.498Z,38.40
2018-03-06T03:43:21.008Z,33.90
2018-03-06T03:45:23.586Z,39.50
2018-03-06T03:47:26.062Z,39.13
2018-03-06T03:49:28.780Z,43.30
2018-03-06T03:51:31.222Z,37.87
2018-03-06T03:53:33.766Z,39.67
2018-03-06T03:55:36.362Z,42.00
2018-03-06T03:57:38.818Z,47.33
2018-03-06T03:59:41.346Z,40.80
2018-03-06T04:01:43.943Z,44.53
2018-03-06T04:03:46.437Z,45.17
2018-03-06T04:05:48.902Z,51.50
2018-03-06T04:07:51.420Z,45.53
2018-03-06T04:09:53.886Z,43.23
2018-03-06T04:11:56.404Z,43.90
2018-03-06T04:13:58.850Z,43.23
2018-03-06T04:16:01.348Z,46.67
2018-03-06T04:18:03.804Z,47.10
2018-03-06T04:20:06.381Z,44.70
2018-03-06T04:22:08.970Z,45.37
2018-03-06T04:24:11.453Z,41.47
2018-03-06T04:26:13.959Z,48.30
2018-03-06T04:28:16.461Z,44.83
2018-03-06T04:30:19.048Z,47.30
2018-03-06T04:32:21.542Z,43.60
2018-03-06T04:34:24.031Z,48.53
2018-03-06T04:36:26.608Z,51.20
2018-03-06T04:38:29.089Z,47.53
2018-03-06T04:40:31.593Z,51.07
2018-03-06T04:42:34.108Z,48.23
2018-03-06T04:44:36.613Z,46.73
2018-03-06T04:46:39.099Z,47.83
2018-03-06T04:48:41.694Z,50.37
2018-03-06T04:50:44.192Z,52.70
2018-03-06T04:52:46.648Z,61.53
2018-03-06T04:54:49.108Z,57.63
2018-03-06T04:56:51.594Z,65.47
2018-03-06T04:58:54.056Z,55.70
2018-03-06T05:00:56.651Z,51.50
2018-03-06T05:02:59.149Z,58.70
2018-03-06T05:05:01.622Z,53.67
2018-03-06T05:07:04.134Z,57.90
2018-03-06T05:09:06.592Z,52.27
2018-03-06T05:11:09.044Z,56.43
2018-03-06T05:13:11.584Z,57.40
2018-03-06T05:15:14.042Z,53.00
2018-03-06T05:17:16.591Z,54.80
2018-03-06T05:19:19.193Z,50.27
2018-03-06T05:21:21.641Z,55.77
2018-03-06T05:23:24.178Z,58.23
2018-03-06T05:25:26.637Z,56.43
2018-03-06T05:27:29.114Z,48.57
2018-03-06T05:29:31.589Z,55.40
2018-03-06T05:31:34.084Z,49.00
2018-03-06T05:33:36.553Z,55.67
2018-03-06T05:35:39.121Z,48.30
2018-03-06T05:37:41.589Z,57.27
2018-03-06T05:39:44.069Z,51.90
2018-03-06T05:41:46.616Z,56.50
2018-03-06T05:43:49.217Z,54.53
2018-03-06T05:45:51.812Z,59.13
2018-03-06T05:47:54.308Z,53.43
2018-03-06T05:49:56.801Z,57.97
2018-03-06T05:51:59.385Z,59.07
2018-03-06T05:54:01.986Z,57.30
2018-03-06T05:56:04.473Z,62.80
2018-03-06T05:58:06.969Z,61.30
2018-03-06T06:00:09.469Z,58.33
2018-03-06T06:02:12.017Z,60.03
2018-03-06T06:04:14.554Z,62.13
2018-03-06T06:06:17.088Z,55.47
2018-03-06T06:08:19.569Z,70.70
2018-03-06T06:10:22.139Z,66.70
2018-03-06T06:12:24.637Z,62.63
2018-03-06T06:14:27.117Z,64.43
2018-03-06T06:16:29.610Z,59.63
2018-03-06T06:18:32.069Z,60.20
2018-03-06T06:20:34.595Z,57.47
2018-03-06T06:22:37.093Z,69.30
2018-03-06T06:24:39.688Z,62.43
2018-03-06T06:26:42.113Z,61.47
2018-03-06T06:28:44.569Z,55.53
2018-03-06T06:30:47.060Z,62.23
2018-03-06T06:32:49.529Z,63.27
2018-03-06T06:34:52.003Z,56.97
2018-03-06T06:36:54.462Z,45.70
2018-03-06T06:38:56.959Z,48.87
2018-03-06T06:40:59.406Z,51.20
2018-03-06T06:43:01.920Z,56.03
2018-03-06T06:45:04.518Z,53.13
2018-03-06T06:47:07.031Z,58.00
2018-03-06T06:49:09.619Z,60.87
2018-03-06T06:51:12.066Z,59.50
2018-03-06T06:53:14.590Z,65.10
2018-03-06T06:55:17.055Z,61.23
2018-03-06T06:57:19.530Z,55.93
2018-03-06T06:59:22.029Z,56.03
2018-03-06T07:01:24.565Z,53.70
2018-03-06T07:03:27.013Z,56.50
2018-03-06T07:05:29.473Z,57.40
2018-03-06T07:07:32.039Z,63.13
2018-03-06T07:09:34.638Z,63.13
2018-03-06T07:11:37.115Z,66.00
2018-03-06T07:13:39.620Z,56.07
2018-03-06T07:15:42.146Z,59.70
2018-03-06T07:17:44.605Z,59.27
2018-03-06T07:19:47.109Z,58.30
2018-03-06T07:21:49.578Z,60.80
2018-03-06T07:23:52.089Z,55.37
2018-03-06T07:25:54.594Z,73.10
2018-03-06T07:27:57.179Z,61.40
2018-03-06T07:29:59.627Z,64.53
2018-03-06T07:32:02.161Z,58.90
2018-03-06T07:34:04.655Z,57.27
2018-03-06T07:36:07.250Z,60.33
2018-03-06T07:38:09.789Z,65.43
2018-03-06T07:40:12.218Z,71.03
2018-03-06T07:42:15.525Z,60.40
2018-03-06T07:44:17.993Z,61.47
2018-03-06T07:46:20.541Z,62.27
2018-03-06T07:48:23.012Z,64.47
2018-03-06T07:50:25.520Z,62.67
2018-03-06T07:52:27.994Z,56.63
2018-03-06T07:54:30.509Z,61.23
2018-03-06T07:56:32.967Z,54.67
2018-03-06T07:58:35.406Z,61.10
2018-03-06T08:00:37.948Z,56.10
2018-03-06T08:02:40.355Z,53.87
2018-03-06T08:04:42.843Z,51.97
2018-03-06T08:06:45.361Z,50.47
2018-03-06T08:08:47.816Z,55.40
2018-03-06T08:10:50.381Z,49.00
2018-03-06T08:12:52.820Z,49.40
2018-03-06T08:14:55.295Z,47.80
2018-03-06T08:16:57.798Z,49.60
2018-03-06T08:19:00.325Z,55.50
2018-03-06T08:21:02.816Z,56.70
2018-03-06T08:23:05.281Z,52.27
2018-03-06T08:25:07.780Z,52.53
2018-03-06T08:27:10.396Z,54.77
2018-03-06T08:29:12.836Z,52.87
2018-03-06T08:31:15.381Z,53.00
2018-03-06T08:33:17.982Z,58.43
2018-03-06T08:35:20.446Z,47.33
2018-03-06T08:37:22.970Z,57.50
2018-03-06T08:39:25.498Z,57.90
2018-03-06T08:41:28.054Z,53.83
2018-03-06T08:43:30.500Z,54.67
2018-03-06T08:45:32.975Z,53.83
2018-03-06T08:47:35.534Z,55.50
2018-03-06T08:49:38.028Z,56.13
2018-03-06T08:51:40.520Z,59.13
2018-03-06T08:53:42.959Z,51.60
2018-03-06T08:55:45.470Z,58.37
2018-03-06T08:57:47.937Z,65.90
2018-03-06T08:59:50.491Z,57.63
2018-03-06T09:01:52.946Z,51.23
2018-03-06T09:03:55.424Z,56.93
2018-03-06T09:05:57.940Z,54.60
2018-03-06T09:08:00.467Z,55.47
2018-03-06T09:10:02.909Z,56.43
2018-03-06T09:12:05.392Z,56.33
2018-03-06T09:14:07.950Z,56.13
2018-03-06T09:16:10.486Z,64.50
2018-03-06T09:18:12.989Z,53.17
2018-03-06T09:20:15.523Z,56.47
2018-03-06T09:22:17.941Z,53.67
2018-03-06T09:24:20.412Z,61.53
2018-03-06T09:26:22.943Z,61.73
2018-03-06T09:28:25.501Z,55.50
2018-03-06T09:30:28.094Z,51.03
2018-03-06T09:32:30.580Z,50.00
2018-03-06T09:34:33.184Z,54.53
2018-03-06T09:36:35.683Z,56.27
2018-03-06T09:38:38.141Z,51.20
2018-03-06T09:40:40.620Z,50.10
2018-03-06T09:42:43.153Z,50.80
2018-03-06T09:44:45.610Z,54.20
2018-03-06T09:46:48.037Z,63.23
2018-03-06T09:48:50.537Z,55.37
2018-03-06T09:50:52.985Z,65.70
2018-03-06T09:52:55.500Z,54.10
2018-03-06T09:54:58.011Z,53.10
2018-03-06T09:57:00.484Z,49.33
2018-03-06T09:59:02.958Z,55.93
2018-03-06T10:01:05.447Z,57.80
2018-03-06T10:03:07.902Z,49.03
2018-03-06T10:05:10.420Z,54.20
2018-03-06T10:07:12.868Z,53.50
2018-03-06T10:09:15.465Z,48.87
2018-03-06T10:11:17.959Z,52.90
2018-03-06T10:13:20.445Z,46.80
2018-03-06T10:15:22.908Z,50.97
2018-03-06T10:17:25.402Z,47.43
2018-03-06T10:19:28.050Z,54.13
2018-03-06T10:21:30.625Z,51.27
2018-03-06T10:23:33.077Z,53.73
2018-03-06T10:25:35.610Z,52.73
2018-03-06T10:27:38.057Z,56.00
2018-03-06T10:29:40.600Z,54.53
2018-03-06T10:31:43.063Z,54.80
2018-03-06T10:33:45.598Z,54.53
2018-03-06T10:35:48.181Z,56.90
2018-03-06T10:37:50.673Z,59.17
2018-03-06T10:39:53.266Z,52.00
2018-03-06T10:41:55.790Z,54.67
2018-03-06T10:43:58.283Z,58.10
2018-03-06T10:46:00.754Z,58.60
2018-03-06T10:48:03.346Z,57.93
2018-03-06T10:50:05.836Z,59.63
2018-03-06T10:52:08.304Z,58.57
2018-03-06T10:54:10.938Z,59.80
2018-03-06T10:56:13.419Z,58.20
2018-03-06T10:58:16.007Z,63.70
2018-03-06T11:00:23.985Z,66.53
2018-03-06T11:02:32.462Z,64.00
2018-03-06T11:04:35.064Z,63.73
2018-03-06T11:06:37.657Z,67.63
2018-03-06T11:08:40.145Z,63.03
2018-03-06T11:10:42.641Z,66.17
2018-03-06T11:12:45.107Z,63.27
2018-03-06T11:14:47.607Z,63.27
2018-03-06T11:16:50.131Z,69.50
2018-03-06T11:18:52.585Z,75.70
2018-03-06T11:20:55.074Z,74.27
2018-03-06T11:22:57.596Z,67.23
2018-03-06T11:25:00.069Z,68.60
2018-03-06T11:27:02.542Z,74.10
2018-03-06T11:29:05.088Z,75.90
2018-03-06T11:31:07.666Z,68.20
2018-03-06T11:33:10.183Z,75.20
2018-03-06T11:35:12.659Z,70.77
2018-03-06T11:37:15.166Z,79.93
2018-03-06T11:39:17.742Z,74.40
2018-03-06T11:41:20.241Z,87.50
2018-03-06T11:43:22.718Z,79.70
2018-03-06T11:45:25.233Z,77.63
2018-03-06T11:47:27.752Z,75.17
2018-03-06T11:49:30.278Z,85.93
2018-03-06T11:51:32.753Z,72.87
2018-03-06T11:53:35.242Z,83.90
2018-03-06T11:55:37.696Z,82.83
2018-03-06T11:57:40.158Z,79.57
2018-03-06T11:59:42.692Z,84.53
2018-03-06T12:01:45.192Z,84.57
2018-03-06T12:03:47.695Z,88.97
2018-03-06T12:05:50.261Z,84.47
2018-03-06T12:07:52.712Z,94.00
2018-03-06T12:09:55.267Z,93.97
2018-03-06T12:11:57.842Z,91.77
2018-03-06T12:14:00.304Z,89.27
2018-03-06T12:16:02.938Z,80.47
2018-03-06T12:18:05.417Z,86.80
2018-03-06T12:20:07.918Z,88.90
2018-03-06T12:22:10.469Z,91.27
2018-03-06T12:24:13.003Z,91.50
2018-03-06T12:26:15.517Z,96.50
2018-03-06T12:28:17.996Z,93.63
2018-03-06T12:30:20.482Z,94.80
2018-03-06T12:32:22.972Z,94.90
2018-03-06T12:34:25.477Z,90.07
2018-03-06T12:36:27.958Z,96.60
2018-03-06T12:38:30.393Z,94.63
2018-03-06T12:40:32.908Z,84.10
2018-03-06T12:42:35.417Z,87.20
2018-03-06T12:44:37.894Z,90.80
2018-03-06T12:46:40.427Z,84.77
2018-03-06T12:48:42.894Z,88.83
2018-03-06T12:50:45.363Z,74.43
2018-03-06T12:52:47.908Z,88.67
2018-03-06T12:54:50.502Z,88.43
2018-03-06T12:56:52.908Z,86.73
2018-03-06T12:58:55.390Z,83.47
2018-03-06T13:00:57.923Z,92.23
2018-03-06T13:03:00.374Z,89.33
2018-03-06T13:05:02.968Z,84.47
2018-03-06T13:07:05.475Z,87.00
2018-03-06T13:09:08.055Z,86.37
2018-03-06T13:11:10.579Z,97.37
2018-03-06T13:13:13.110Z,89.50
2018-03-06T13:15:15.593Z,88.50
2018-03-06T13:17:18.128Z,79.10
2018-03-06T13:19:20.659Z,75.33
2018-03-06T13:21:23.130Z,72.37
2018-03-06T13:23:25.720Z,78.50
2018-03-06T13:25:28.165Z,72.10
2018-03-06T13:27:30.650Z,73.67
2018-03-06T13:29:33.149Z,72.37
2018-03-06T13:31:35.600Z,73.73
2018-03-06T13:33:38.084Z,79.67
2018-03-06T13:35:40.575Z,68.70
2018-03-06T13:37:43.076Z,73.93
2018-03-06T13:39:45.587Z,73.07
2018-03-06T13:41:48.069Z,85.77
2018-03-06T13:43:50.647Z,79.10
2018-03-06T13:45:53.152Z,79.47
2018-03-06T13:47:55.729Z,87.00
2018-03-06T13:49:58.192Z,88.27
2018-03-06T13:52:00.718Z,80.63
2018-03-06T13:54:03.329Z,84.90
2018-03-06T13:56:05.810Z,83.07
2018-03-06T13:58:08.268Z,90.40
2018-03-06T14:00:10.718Z,93.23
2018-03-06T14:02:13.286Z,95.23
2018-03-06T14:04:15.883Z,105.13
2018-03-06T14:06:18.333Z,97.90
2018-03-06T14:08:20.822Z,95.57
2018-03-06T14:10:23.361Z,96.43
2018-03-06T14:12:25.820Z,98.73
2018-03-06T14:14:28.368Z,97.87
2018-03-06T14:16:30.839Z,93.40
2018-03-06T14:18:33.283Z,107.60
2018-03-06T14:20:35.829Z,102.07
2018-03-06T14:22:38.324Z,103.00
2018-03-06T14:24:40.830Z,105.70
2018-03-06T14:26:47.957Z,109.10
2018-03-06T14:28:50.429Z,100.33
2018-03-06T14:30:53.003Z,106.90
2018-03-06T14:32:55.471Z,98.97
2018-03-06T14:34:57.983Z,106.47
2018-03-06T14:37:00.585Z,101.37
2018-03-06T14:39:03.076Z,112.07
2018-03-06T14:41:05.672Z,99.00
2018-03-06T14:43:08.131Z,110.30
2018-03-06T14:45:10.589Z,111.70
2018-03-06T14:47:13.060Z,111.97
2018-03-06T14:49:15.515Z,109.80
2018-03-06T14:51:18.011Z,104.53
2018-03-06T14:53:20.540Z,103.70
2018-03-06T14:55:22.984Z,104.03
2018-03-06T14:57:25.514Z,115.23
2018-03-06T14:59:28.113Z,104.53
2018-03-06T15:01:30.642Z,116.00
2018-03-06T15:03:34.331Z,112.77
2018-03-06T15:05:36.819Z,105.90
2018-03-06T15:07:39.306Z,112.90
2018-03-06T15:09:41.820Z,115.27
2018-03-06T15:11:44.309Z,114.40
2018-03-06T15:13:46.810Z,105.37
2018-03-06T15:15:49.286Z,104.37
2018-03-06T15:17:51.747Z,109.60
2018-03-06T15:19:54.252Z,111.50
2018-03-06T15:21:56.740Z,112.93
2018-03-06T15:23:59.219Z,113.60
2018-03-06T15:26:01.689Z,105.70
2018-03-06T15:28:04.237Z,114.90
2018-03-06T15:30:06.832Z,118.40
2018-03-06T15:32:09.430Z,117.93
2018-03-06T15:34:12.010Z,110.13
2018-03-06T15:36:14.456Z,117.80
2018-03-06T15:38:16.914Z,109.77
2018-03-06T15:40:19.437Z,116.23
2018-03-06T15:42:21.898Z,112.50
2018-03-06T15:44:24.350Z,120.60
2018-03-06T15:46:26.884Z,109.00
2018-03-06T15:48:29.373Z,111.70
2018-03-06T15:50:31.982Z,117.20
2018-03-06T15:52:34.469Z,105.87
2018-03-06T15:54:37.058Z,117.73
2018-03-06T15:56:39.523Z,120.87
2018-03-06T15:58:42.042Z,110.30
2018-03-06T16:00:44.550Z,112.10
2018-03-06T16:02:47.036Z,114.90
2018-03-06T16:04:49.726Z,119.03
2018-03-06T16:06:52.187Z,114.93
2018-03-06T16:08:54.689Z,111.50
2018-03-06T16:10:57.221Z,125.93
2018-03-06T16:12:59.688Z,105.33
2018-03-06T16:15:02.147Z,115.50
2018-03-06T16:17:04.659Z,120.67
2018-03-06T16:19:07.192Z,113.60
2018-03-06T16:21:09.717Z,118.60
2018-03-06T16:23:12.372Z,115.97
2018-03-06T16:25:14.845Z,119.20
2018-03-06T16:27:17.465Z,115.50
2018-03-06T16:29:19.920Z,118.00
2018-03-06T16:31:22.455Z,120.27
2018-03-06T16:33:24.941Z,124.33
2018-03-06T16:35:27.413Z,129.93
2018-03-06T16:37:29.942Z,113.20
2018-03-06T16:39:32.398Z,131.57
2018-03-06T16:41:34.906Z,120.43
2018-03-06T16:43:37.477Z,124.47
2018-03-06T16:45:40.063Z,128.73
2018-03-06T16:47:42.676Z,124.90
2018-03-06T16:49:45.191Z,137.43
2018-03-06T16:51:47.685Z,136.83
2018-03-06T16:53:50.221Z,144.10
2018-03-06T16:55:52.786Z,145.23
2018-03-06T16:57:55.266Z,133.13
2018-03-06T16:59:57.749Z,139.20
2018-03-06T17:02:00.761Z,142.30
2018-03-06T17:04:03.472Z,145.97
2018-03-06T17:06:06.003Z,147.90
2018-03-06T17:08:08.496Z,148.73
2018-03-06T17:10:11.046Z,143.30
2018-03-06T17:12:13.540Z,135.33
2018-03-06T17:14:16.076Z,128.37
2018-03-06T17:16:18.731Z,150.53
2018-03-06T17:18:21.202Z,152.93
2018-03-06T17:20:23.678Z,156.73
2018-03-06T17:22:26.236Z,156.37
2018-03-06T17:24:28.806Z,147.13
2018-03-06T17:26:31.307Z,159.20
2018-03-06T17:28:33.786Z,148.73
2018-03-06T17:30:36.274Z,151.27
2018-03-06T17:32:38.980Z,146.27
2018-03-06T17:34:41.477Z,143.70
2018-03-06T17:36:44.001Z,142.23
2018-03-06T17:38:46.558Z,149.17
2018-03-06T17:40:49.053Z,147.00
2018-03-06T17:42:51.527Z,148.37
2018-03-06T17:44:54.041Z,137.53
2018-03-06T17:46:57.678Z,157.67
2018-03-06T17:49:00.265Z,150.87
2018-03-06T17:51:02.849Z,153.80
2018-03-06T17:53:05.342Z,150.00
2018-03-06T17:55:07.838Z,146.70
2018-03-06T17:57:10.353Z,138.17
2018-03-06T17:59:12.865Z,149.67
2018-03-06T18:01:15.371Z,148.93
2018-03-06T18:03:17.916Z,151.10
2018-03-06T18:05:20.478Z,157.67
2018-03-06T18:07:22.942Z,145.33
2018-03-06T18:09:25.531Z,151.83
2018-03-06T18:11:28.024Z,143.87
2018-03-06T18:13:30.590Z,157.27
2018-03-06T18:15:33.180Z,165.57
2018-03-06T18:17:35.698Z,143.67
2018-03-06T18:19:38.172Z,149.17
2018-03-06T18:21:40.707Z,150.63
2018-03-06T18:23:43.174Z,154.93
2018-03-06T18:25:45.647Z,158.53
2018-03-06T18:27:48.237Z,156.40
2018-03-06T18:29:50.731Z,161.20
2018-03-06T18:31:53.233Z,152.87
2018-03-06T18:33:55.822Z,146.27
2018-03-06T18:35:58.312Z,169.40
2018-03-06T18:38:00.907Z,146.07
2018-03-06T18:40:03.401Z,152.43
2018-03-06T18:42:05.860Z,145.37
2018-03-06T18:44:08.329Z,157.37
2018-03-06T18:46:10.986Z,157.13
2018-03-06T18:48:13.538Z,165.03
2018-03-06T18:50:27.703Z,157.40
2018-03-06T18:52:30.244Z,158.70
2018-03-06T18:54:32.732Z,163.47
2018-03-06T18:56:35.212Z,155.90
2018-03-06T18:58:37.713Z,163.17
2018-03-06T19:01:00.934Z,157.67
2018-03-06T19:03:10.429Z,156.37
2018-03-06T19:05:24.797Z,155.93
2018-03-06T19:07:27.396Z,154.47
2018-03-06T19:09:29.931Z,148.43
2018-03-06T19:11:32.477Z,154.17
2018-03-06T19:13:34.993Z,159.27
2018-03-06T19:15:37.493Z,164.03
2018-03-06T19:17:40.042Z,148.63
2018-03-06T19:19:42.618Z,164.80
2018-03-06T19:21:45.149Z,156.17
2018-03-06T19:23:47.664Z,159.40
2018-03-06T19:25:50.235Z,162.23
2018-03-06T19:27:53.145Z,158.17
2018-03-06T19:29:55.635Z,152.50
2018-03-06T19:31:58.112Z,163.93
2018-03-06T19:34:00.822Z,169.27
2018-03-06T19:36:03.459Z,171.03
2018-03-06T19:38:06.180Z,162.93
2018-03-06T19:40:08.719Z,162.90
2018-03-06T19:42:11.492Z,160.37
2018-03-06T19:44:14.057Z,170.70
2018-03-06T19:46:16.574Z,155.00
2018-03-06T19:48:19.299Z,153.93
2018-03-06T19:50:21.895Z,161.10
2018-03-06T19:52:24.388Z,152.97
2018-03-06T19:54:26.917Z,163.10
2018-03-06T19:56:29.459Z,171.13
2018-03-06T19:58:31.890Z,170.63
2018-03-06T20:00:34.460Z,157.93
2018-03-06T20:02:37.250Z,164.53
2018-03-06T20:04:39.840Z,160.50
2018-03-06T20:06:42.651Z,166.90
2018-03-06T20:08:45.193Z,174.90
2018-03-06T20:10:47.655Z,167.20
2018-03-06T20:12:50.193Z,180.07
2018-03-06T20:14:58.214Z,171.33
2018-03-06T20:17:01.011Z,173.43
2018-03-06T20:19:09.335Z,165.10
2018-03-06T20:21:11.846Z,156.10
2018-03-06T20:23:14.523Z,166.10
2018-03-06T20:25:22.730Z,164.60
2018-03-06T20:27:25.290Z,167.13
2018-03-06T20:29:27.729Z,162.57
2018-03-06T20:31:35.766Z,159.90
2018-03-06T20:33:38.293Z,166.87
2018-03-06T20:35:40.831Z,174.80
2018-03-06T20:37:43.677Z,178.90
2018-03-06T20:39:51.799Z,168.20
2018-03-06T20:41:54.405Z,175.90
2018-03-06T20:43:56.864Z,168.10
2018-03-06T20:46:04.965Z,172.43
2018-03-06T20:48:07.486Z,176.27
2018-03-06T20:50:10.015Z,174.67
2018-03-06T20:52:12.540Z,182.77
2018-03-06T20:54:20.535Z,183.63
2018-03-06T20:56:23.097Z,170.17
2018-03-06T20:58:25.614Z,161.50
2018-03-06T21:00:28.208Z,165.60
2018-03-06T21:02:30.732Z,159.27
2018-03-06T21:04:33.219Z,176.87
2018-03-06T21:06:35.718Z,166.87
2018-03-06T21:08:38.236Z,157.67
2018-03-06T21:10:40.723Z,155.20
2018-03-06T21:12:43.256Z,152.30
2018-03-06T21:14:45.757Z,158.90
2018-03-06T21:16:48.364Z,159.20
2018-03-06T21:18:50.960Z,162.53
2018-03-06T21:20:53.508Z,161.50
2018-03-06T21:22:55.984Z,156.57
2018-03-06T21:24:58.646Z,146.77
2018-03-06T21:27:01.113Z,168.53
2018-03-06T21:29:03.625Z,144.53
2018-03-06T21:31:06.131Z,159.93
2018-03-06T21:33:08.610Z,149.53
2018-03-06T21:35:11.238Z,168.60
2018-03-06T21:37:14.616Z,155.77
2018-03-06T21:39:17.118Z,167.37
2018-03-06T21:41:19.640Z,171.37
2018-03-06T21:43:22.301Z,166.17
2018-03-06T21:45:24.762Z,164.43
2018-03-06T21:47:27.291Z,164.73
2018-03-06T21:49:29.800Z,158.77
2018-03-06T21:51:32.304Z,172.23
2018-03-06T21:53:34.761Z,163.50
2018-03-06T21:55:37.245Z,164.37
2018-03-06T21:57:39.749Z,161.90
2018-03-06T21:59:42.269Z,160.97
2018-03-06T22:01:44.781Z,165.80
2018-03-06T22:03:47.247Z,174.90
2018-03-06T22:05:49.712Z,154.47
2018-03-06T22:07:52.321Z,166.90
2018-03-06T22:09:54.891Z,156.90
2018-03-06T22:11:57.426Z,161.10
2018-03-06T22:13:59.975Z,164.43
2018-03-06T22:16:02.597Z,168.90
2018-03-06T22:18:05.174Z,162.07
2018-03-06T22:20:07.665Z,182.10
2018-03-06T22:22:10.140Z,156.67
2018-03-06T22:24:12.594Z,156.93
2018-03-06T22:26:15.086Z,182.80
2018-03-06T22:28:17.635Z,178.73
2018-03-06T22:30:20.190Z,168.80
2018-03-06T22:32:22.648Z,156.20
2018-03-06T22:34:25.144Z,178.00
2018-03-06T22:36:27.685Z,178.73
2018-03-06T22:38:30.137Z,165.33
2018-03-06T22:40:32.725Z,177.87
2018-03-06T22:42:35.245Z,183.20
2018-03-06T22:44:38.827Z,168.63
2018-03-06T22:46:41.341Z,161.67
2018-03-06T22:48:43.810Z,182.20
2018-03-06T22:50:46.346Z,171.67
2018-03-06T22:52:48.842Z,182.13
2018-03-06T22:54:51.322Z,172.57
2018-03-06T22:56:53.792Z,175.90
2018-03-06T22:58:56.270Z,173.27
2018-03-06T23:00:58.738Z,163.00
2018-03-06T23:03:01.245Z,179.17
2018-03-06T23:05:03.751Z,174.70
2018-03-06T23:07:06.241Z,176.83
2018-03-06T23:09:08.700Z,164.40
2018-03-06T23:11:11.200Z,170.87
2018-03-06T23:13:13.661Z,184.03
2018-03-06T23:15:16.217Z,168.40
2018-03-06T23:19:44.547Z,172.30
2018-03-06T23:21:47.037Z,173.03
2018-03-06T23:23:49.483Z,180.30
2018-03-06T23:25:51.982Z,181.13
2018-03-06T23:27:54.467Z,186.47
2018-03-06T23:29:56.957Z,179.47
2018-03-06T23:31:59.546Z,192.57
2018-03-06T23:34:02.052Z,195.23
2018-03-06T23:36:04.516Z,191.37
2018-03-06T23:38:07.016Z,173.10
2018-03-06T23:40:09.581Z,175.63
2018-03-06T23:42:12.040Z,172.33
2018-03-06T23:44:14.514Z,163.67
2018-03-06T23:46:16.976Z,170.30
2018-03-06T23:48:19.557Z,188.07
2018-03-06T23:50:22.041Z,173.27
2018-03-06T23:52:24.638Z,161.73
2018-03-06T23:54:27.234Z,192.03
2018-03-06T23:56:29.826Z,176.23
2018-03-06T23:58:32.321Z,184.63
